Startpagina
METAR-TAF:

METAR-TAF

Vliegvelden :

Weeze, Duitsland

Flughafen Weeze

breedte: 51-36-09N, lengte: 006-08-32E, hoogte: 32 m

Actueel weer

Dit bericht is 11 minuten geleden gemaakt, om 05:50 UTC
Wind 8 kt uit het zuidzuidwesten
Temperatuur 13°C
Vochtigheid 100%
Druk 1020 hPa
Zicht: 5000 m
Gebroken wolken op 400 ft
lichte motregen

METAR: EDLV 240550Z 20008KT 5000 -DZ BKN004 13/13 Q1020

Tijdstip: 08:01 (06:01 UTC)

Verwachting

Dit bericht is 1 uur en het 1 minuten geleden gemaakt, om 05:00 UTC
Verwachting geldig van 24 om 06 UTC tot 25 om 06 UTC
Wind 8 kt uit het zuidzuidwesten
Zicht: 6000 m
Gebroken wolken op 800 ft
Tijdelijke
van 24 om 06 UTC tot 24 om 08 UTC
Zicht: 2500 m
Gebroken wolken op 300 ft
lichte motregen
Wijzigt naar
van 24 om 08 UTC tot 24 om 11 UTC
Gebroken wolken op 2000 ft
Tijdelijke
van 24 om 13 UTC tot 24 om 20 UTC
Zicht: 4000 m
Gebroken wolken op 600 ft
regen

TAF: EDLV 240500Z 2406/2506 20008KT 6000 BKN008 TEMPO 2406/2408 2500 -DZ BKN003 BECMG 2408/2411 BKN020 TEMPO 2413/2420 4000 RA BKN006

Waarnemingen en weersverwachtingen van meer dan 4000 vliegvelden (METAR en TAF).

De beschikbare stations zijn de gele en rode punten op de kaart.

Ga met uw muis naar het station om de naam te zien.

Klik dan om waarnemingen en weersverwachtingen te zien.

kaart wijzigen: klik op de groene knoppen met een zwart kruis om in te zoomen, op de groene knop met een streepje om uit te zoomen of op de groene pijlen voor aangrenzende kaarten.


METAR-TAF: